Time;durP1;ratioP1;P1;durP2;ratioP2;P2;SDS_P1;SDS_P2;PMS_P1;PMS_P2;Temp;Humidity;BMP_temperature;BMP_pressure;BME280_temperature;BME280_humidity;BME280_pressure;Samples;Min_cycle;Max_cycle;Signal;HPM_P1;HPM_P2
2023/12/08 00:02:08;;;;;;;215.40;48.50;;;;;;;-0.67;100.00;99743.67;103950;1283;60586;-32
2023/12/08 00:04:34;;;;;;;203.50;51.00;;;;;;;-0.65;100.00;99745.38;103827;1283;60571;-31
2023/12/08 00:07:00;;;;;;;223.20;51.70;;;;;;;-0.64;100.00;99744.98;103947;1283;60491;-36
2023/12/08 00:09:26;;;;;;;216.10;50.60;;;;;;;-0.67;100.00;99751.00;103833;1283;72928;-32
2023/12/08 00:11:52;;;;;;;220.70;50.70;;;;;;;-0.69;100.00;99752.23;103934;1283;60494;-33
2023/12/08 00:14:18;;;;;;;;;;;;;;;-0.67;100.00;99753.83;103888;1285;60565;-30
2023/12/08 00:16:44;;;;;;;215.40;51.90;;;;;;;-0.69;100.00;99753.26;103922;1284;60357;-29
2023/12/08 00:19:10;;;;;;;206.20;47.70;;;;;;;-0.65;100.00;99755.44;103964;1284;60574;-30
2023/12/08 00:21:36;;;;;;;196.40;49.60;;;;;;;-0.61;100.00;99755.66;103838;1282;60567;-30
2023/12/08 00:24:02;;;;;;;213.70;52.10;;;;;;;-0.59;100.00;99756.00;103775;1285;60571;-31
2023/12/08 00:26:28;;;;;;;206.70;49.60;;;;;;;-0.60;100.00;99752.73;103888;1284;60473;-35
2023/12/08 00:28:54;;;;;;;210.70;51.30;;;;;;;-0.58;100.00;99753.29;104054;1283;60573;-34
2023/12/08 00:31:20;;;;;;;196.70;48.60;;;;;;;-0.57;100.00;99755.20;103892;1283;60504;-31
2023/12/08 00:33:46;;;;;;;226.40;53.70;;;;;;;-0.59;100.00;99751.15;103826;1283;60513;-33
2023/12/08 00:36:12;;;;;;;;;;;;;;;-0.59;100.00;99753.42;103898;1285;60970;-31
2023/12/08 00:38:38;;;;;;;182.60;48.90;;;;;;;-0.65;100.00;99755.28;103924;1282;60475;-31
2023/12/08 00:41:04;;;;;;;213.90;50.10;;;;;;;-0.65;100.00;99757.02;103932;1284;60552;-32
2023/12/08 00:43:30;;;;;;;191.90;47.60;;;;;;;-0.64;100.00;99757.30;104051;1285;60478;-32
2023/12/08 00:45:57;;;;;;;166.80;45.30;;;;;;;-0.53;100.00;99759.06;103380;1283;1003732;-31
2023/12/08 00:48:23;;;;;;;187.80;48.60;;;;;;;-0.51;100.00;99763.67;102452;1283;1003189;-29
2023/12/08 00:50:48;;;;;;;183.30;47.80;;;;;;;-0.49;100.00;99764.52;104011;1283;60587;-31
2023/12/08 00:53:15;;;;;;;196.80;49.40;;;;;;;-0.50;100.00;99763.23;104008;1285;60545;-30
2023/12/08 00:55:40;;;;;;;180.50;45.20;;;;;;;-0.50;100.00;99762.70;104110;1281;60367;-30
2023/12/08 00:58:06;;;;;;;200.50;50.00;;;;;;;-0.44;100.00;99759.69;103971;1285;60501;-30
2023/12/08 01:00:32;;;;;;;195.80;47.10;;;;;;;-0.48;100.00;99756.61;104111;1292;60577;-31
2023/12/08 01:02:58;;;;;;;218.50;52.50;;;;;;;-0.42;100.00;99754.06;104022;1285;60534;-34
2023/12/08 01:05:24;;;;;;;215.70;50.30;;;;;;;-0.39;100.00;99757.19;104139;1299;60565;-32
2023/12/08 01:07:49;;;;;;;181.20;47.60;;;;;;;-0.38;100.00;99765.00;104035;1285;60536;-34
2023/12/08 01:10:15;;;;;;;197.70;48.70;;;;;;;-0.38;100.00;99764.50;104213;1285;61646;-32
2023/12/08 01:12:42;;;;;;;179.10;47.00;;;;;;;-0.42;100.00;99763.34;103994;1292;61701;-33
2023/12/08 01:15:08;;;;;;;205.40;50.50;;;;;;;-0.42;100.00;99762.86;103994;1285;61589;-33
2023/12/08 01:17:34;;;;;;;187.70;46.00;;;;;;;-0.40;100.00;99766.61;103944;1285;61707;-31
2023/12/08 01:20:00;;;;;;;201.60;50.40;;;;;;;-0.41;100.00;99768.55;104042;1285;61543;-31
2023/12/08 01:22:27;;;;;;;197.40;49.70;;;;;;;-0.44;100.00;99768.45;104059;1285;60616;-32
2023/12/08 01:24:54;;;;;;;200.50;51.40;;;;;;;-0.44;100.00;99768.62;104074;1285;60586;-32
2023/12/08 01:27:19;;;;;;;218.10;51.70;;;;;;;-0.42;100.00;99765.69;103965;1283;60689;-31
2023/12/08 01:29:45;;;;;;;203.10;53.00;;;;;;;-0.43;100.00;99764.55;104143;1294;60702;-33
2023/12/08 01:32:11;;;;;;;199.50;54.00;;;;;;;-0.42;100.00;99757.09;103044;1285;1002718;-30
2023/12/08 01:34:37;;;;;;;242.50;59.50;;;;;;;-0.51;100.00;99752.80;103916;1285;60340;-36
2023/12/08 01:37:03;;;;;;;223.70;56.10;;;;;;;-0.55;100.00;99749.96;103989;1285;61146;-32
2023/12/08 01:39:29;;;;;;;225.80;58.00;;;;;;;-0.59;100.00;99747.77;103995;1282;60472;-33
2023/12/08 01:41:55;;;;;;;190.30;52.10;;;;;;;-0.66;100.00;99744.27;104158;1285;60580;-33
2023/12/08 01:44:21;;;;;;;;;;;;;;;-0.69;100.00;99738.15;104326;1302;60568;-32
2023/12/08 01:46:47;;;;;;;216.80;55.60;;;;;;;-0.73;100.00;99740.23;104153;1286;60552;-31
2023/12/08 01:49:13;;;;;;;231.80;57.80;;;;;;;-0.75;100.00;99742.64;104097;1299;60568;-30
2023/12/08 01:51:39;;;;;;;202.80;52.50;;;;;;;-0.80;100.00;99743.05;104135;1283;60482;-32
2023/12/08 02:35:25;;;;;;;189.80;58.60;;;;;;;-1.53;100.00;99724.16;103416;1282;613474;-30
2023/12/08 02:37:54;;;;;;;197.80;53.50;;;;;;;-1.54;100.00;99715.13;103570;1280;92653;-32
2023/12/08 02:40:20;;;;;;;243.90;59.00;;;;;;;-1.58;100.00;99705.10;103740;1282;59509;-31
2023/12/08 02:42:46;;;;;;;195.70;53.10;;;;;;;-1.61;100.00;99707.09;103785;1282;59636;-32
2023/12/08 02:45:12;;;;;;;194.80;57.30;;;;;;;-1.61;100.00;99696.35;103607;1281;59297;-30
2023/12/08 02:47:38;;;;;;;187.50;55.50;;;;;;;-1.57;100.00;99689.58;103697;1285;60940;-30
2023/12/08 02:50:04;;;;;;;;;;;;;;;-1.58;100.00;99690.48;103710;1286;59260;-32
2023/12/08 02:52:29;;;;;;;233.90;65.10;;;;;;;-1.61;100.00;99686.31;103785;1281;59335;-36
2023/12/08 02:54:56;;;;;;;203.70;57.80;;;;;;;-1.60;100.00;99682.20;103757;1286;59344;-30
2023/12/08 02:57:22;;;;;;;201.30;58.00;;;;;;;-1.59;100.00;99676.00;103670;1286;59379;-31
2023/12/08 02:59:47;;;;;;;199.50;56.50;;;;;;;-1.63;100.00;99678.05;103734;1285;59688;-31
2023/12/08 03:02:13;;;;;;;203.80;55.60;;;;;;;-1.65;100.00;99680.98;103615;1282;60306;-32
2023/12/08 03:04:39;;;;;;;211.40;58.80;;;;;;;-1.67;100.00;99677.59;103634;1286;59727;-34
2023/12/08 03:07:05;;;;;;;200.70;55.60;;;;;;;-1.69;100.00;99673.52;103584;1281;59622;-33
2023/12/08 03:09:31;;;;;;;224.80;67.20;;;;;;;-1.74;100.00;99670.41;103727;1282;59738;-31
2023/12/08 03:11:56;;;;;;;201.60;54.00;;;;;;;-1.75;100.00;99674.20;103579;1281;59765;-32
2023/12/08 03:14:22;;;;;;;196.60;54.60;;;;;;;-1.77;100.00;99673.30;103588;1281;59689;-32
2023/12/08 03:16:49;;;;;;;190.90;52.40;;;;;;;-1.78;100.00;99670.15;103638;1286;59765;-30
2023/12/08 03:19:15;;;;;;;198.70;53.40;;;;;;;-1.80;100.00;99670.14;103693;1282;60346;-32
2023/12/08 03:21:41;;;;;;;195.40;54.20;;;;;;;-1.78;100.00;99668.60;103638;1282;59708;-32
2023/12/08 03:24:07;;;;;;;193.70;52.00;;;;;;;-1.76;100.00;99672.68;103739;1282;60232;-33
2023/12/08 03:26:33;;;;;;;220.20;58.70;;;;;;;-1.71;100.00;99671.14;103751;1281;59683;-39
2023/12/08 03:28:59;;;;;;;213.80;58.50;;;;;;;-1.72;100.00;99670.11;103578;1282;59781;-28
2023/12/08 03:31:30;;;;;;;209.90;55.90;;;;;;;-1.73;100.00;99671.88;103654;1282;59683;-31
2023/12/08 03:33:56;;;;;;;190.90;54.10;;;;;;;-1.76;100.00;99667.95;103661;1285;60267;-33
2023/12/08 03:36:22;;;;;;;190.60;52.30;;;;;;;-1.75;100.00;99669.09;103723;1286;60200;-31
2023/12/08 03:38:47;;;;;;;209.30;56.10;;;;;;;-1.76;100.00;99665.27;103660;1282;59757;-30
2023/12/08 03:41:13;;;;;;;210.10;54.10;;;;;;;-1.79;100.00;99662.85;103564;1286;59727;-30
2023/12/08 03:43:39;;;;;;;203.50;57.50;;;;;;;-1.79;100.00;99661.15;103615;1286;59754;-31
2023/12/08 03:46:05;;;;;;;;;;;;;;;-1.77;100.00;99664.16;103587;1284;59805;-32
2023/12/08 03:48:31;;;;;;;210.60;57.10;;;;;;;-1.75;100.00;99664.73;103671;1281;59692;-32
2023/12/08 03:50:57;;;;;;;185.20;52.50;;;;;;;-1.72;100.00;99656.08;103682;1282;59762;-30
2023/12/08 03:53:23;;;;;;;214.00;63.20;;;;;;;-1.68;100.00;99660.32;103771;1281;60280;-33
2023/12/08 03:55:49;;;;;;;216.00;59.80;;;;;;;-1.67;100.00;99648.86;103659;1281;59750;-30
2023/12/08 03:58:15;;;;;;;192.60;53.20;;;;;;;-1.65;100.00;99654.13;103611;1281;59776;-31
2023/12/08 04:00:41;;;;;;;201.10;54.60;;;;;;;-1.65;100.00;99654.33;103677;1282;59698;-34
2023/12/08 04:03:08;;;;;;;;;;;;;;;-1.62;100.00;99658.69;103688;1285;59758;-31
2023/12/08 04:05:34;;;;;;;189.60;54.30;;;;;;;-1.62;100.00;99653.42;103594;1282;59647;-29
2023/12/08 04:08:04;;;;;;;178.80;51.70;;;;;;;-1.60;100.00;99650.65;103739;1281;59747;-29
2023/12/08 04:10:31;;;;;;;176.10;48.60;;;;;;;-1.60;100.00;99651.98;103557;1281;68225;-31
2023/12/08 04:12:57;;;;;;;200.50;56.40;;;;;;;-1.56;100.00;99652.96;103572;1282;72219;-31
2023/12/08 04:15:23;;;;;;;189.70;50.50;;;;;;;-1.53;100.00;99652.58;103589;1286;59721;-31
2023/12/08 04:17:49;;;;;;;196.30;52.50;;;;;;;-1.49;100.00;99650.16;103607;1285;59687;-31
2023/12/08 04:20:17;;;;;;;219.40;58.70;;;;;;;-1.46;100.00;99649.89;103775;1282;60525;-31
2023/12/08 04:22:43;;;;;;;217.30;57.10;;;;;;;-1.43;100.00;99647.95;103737;1281;72146;-29
2023/12/08 04:25:09;;;;;;;197.90;55.00;;;;;;;-1.42;100.00;99651.55;103606;1282;59699;-31
2023/12/08 04:27:34;;;;;;;172.60;50.60;;;;;;;-1.38;100.00;99648.16;103608;1282;59770;-30
2023/12/08 04:30:00;;;;;;;188.70;52.30;;;;;;;-1.36;100.00;99646.01;103612;1281;59685;-31
2023/12/08 04:32:26;;;;;;;207.30;56.50;;;;;;;-1.41;100.00;99643.22;103655;1282;59732;-33
2023/12/08 04:34:52;;;;;;;206.60;56.10;;;;;;;-1.48;100.00;99638.66;103647;1281;59758;-33
2023/12/08 04:37:17;;;;;;;202.80;54.00;;;;;;;-1.49;100.00;99635.18;103651;1285;59975;-32
2023/12/08 04:39:43;;;;;;;197.40;55.60;;;;;;;-1.52;100.00;99632.28;103791;1282;61376;-32
2023/12/08 04:42:09;;;;;;;199.30;57.60;;;;;;;-1.56;100.00;99627.98;103679;1286;59712;-33
2023/12/08 04:44:35;;;;;;;199.90;54.90;;;;;;;-1.57;100.00;99629.84;103515;1287;59640;-33
2023/12/08 04:47:00;;;;;;;206.50;56.90;;;;;;;-1.58;100.00;99631.52;103696;1286;59683;-31
2023/12/08 04:49:26;;;;;;;204.20;55.10;;;;;;;-1.59;100.00;99626.27;103770;1283;59750;-33
2023/12/08 04:51:52;;;;;;;206.50;57.40;;;;;;;-1.60;100.00;99624.09;103714;1282;59777;-31
2023/12/08 04:54:18;;;;;;;208.10;56.80;;;;;;;-1.59;100.00;99621.71;103669;1285;59731;-32
2023/12/08 04:56:44;;;;;;;208.60;56.60;;;;;;;-1.60;100.00;99627.05;103645;1281;60257;-31
2023/12/08 04:59:10;;;;;;;225.10;58.50;;;;;;;-1.61;100.00;99625.57;103777;1281;59736;-33
2023/12/08 05:01:36;;;;;;;203.30;54.60;;;;;;;-1.65;100.00;99632.16;103639;1282;59760;-33
2023/12/08 05:04:03;;;;;;;195.00;53.70;;;;;;;-1.69;100.00;99631.56;103698;1281;59760;-33
2023/12/08 05:06:29;;;;;;;214.60;56.40;;;;;;;-1.71;100.00;99631.39;103634;1281;71664;-31
2023/12/08 05:08:55;;;;;;;217.30;58.40;;;;;;;-1.73;100.00;99632.79;103665;1286;59677;-31
2023/12/08 05:11:21;;;;;;;202.30;54.90;;;;;;;-1.76;100.00;99631.60;103671;1284;59881;-32
2023/12/08 05:13:46;;;;;;;179.40;53.00;;;;;;;-1.77;100.00;99629.97;103685;1283;59760;-30
2023/12/08 05:16:12;;;;;;;203.10;56.30;;;;;;;-1.76;100.00;99625.50;103652;1286;59720;-32
2023/12/08 05:18:39;;;;;;;206.30;54.60;;;;;;;-1.77;100.00;99624.32;103690;1286;59692;-32
2023/12/08 05:21:05;;;;;;;182.20;56.50;;;;;;;-1.81;100.00;99627.19;103676;1284;59725;-29
2023/12/08 05:23:31;;;;;;;199.60;60.70;;;;;;;-1.81;100.00;99625.16;103743;1282;59885;-32
2023/12/08 05:25:56;;;;;;;250.40;75.10;;;;;;;-1.80;100.00;99626.11;103633;1282;59711;-32
2023/12/08 05:28:22;;;;;;;229.90;68.80;;;;;;;-1.82;100.00;99625.17;103628;1281;59782;-30
2023/12/08 05:30:48;;;;;;;218.80;67.00;;;;;;;-1.80;100.00;99629.45;103713;1281;59862;-32
2023/12/08 05:33:14;;;;;;;;;;;;;;;-1.79;100.00;99627.46;103606;1281;59771;-32
2023/12/08 05:35:40;;;;;;;231.10;67.80;;;;;;;-1.80;100.00;99626.10;103768;1282;59704;-33
2023/12/08 05:38:05;;;;;;;221.30;60.00;;;;;;;-1.76;100.00;99619.66;103681;1282;59674;-33
2023/12/08 05:40:31;;;;;;;199.00;56.10;;;;;;;-1.73;100.00;99619.27;102974;1282;1003318;-33
2023/12/08 05:42:57;;;;;;;208.60;56.20;;;;;;;-1.70;100.00;99625.55;103599;1281;59602;-31
2023/12/08 05:45:23;;;;;;;208.40;56.70;;;;;;;-1.66;100.00;99632.42;103625;1282;59654;-31
2023/12/08 05:47:49;;;;;;;195.20;55.60;;;;;;;-1.60;100.00;99633.40;103654;1286;59884;-33
2023/12/08 05:50:16;;;;;;;209.10;56.40;;;;;;;-1.56;100.00;99632.64;102234;1282;1003520;-31
2023/12/08 05:52:42;;;;;;;208.30;57.80;;;;;;;-1.54;100.00;99622.09;103605;1287;60982;-32
2023/12/08 05:55:08;;;;;;;203.30;57.40;;;;;;;-1.52;100.00;99616.51;103686;1283;59759;-30
2023/12/08 05:57:33;;;;;;;215.70;60.10;;;;;;;-1.53;100.00;99611.59;103701;1282;59711;-30
2023/12/08 05:59:59;;;;;;;202.80;58.30;;;;;;;-1.52;100.00;99611.19;103604;1282;59805;-31
2023/12/08 06:02:25;;;;;;;225.90;68.50;;;;;;;-1.54;100.00;99609.98;103706;1286;59766;-30
2023/12/08 06:04:51;;;;;;;242.90;70.50;;;;;;;-1.58;100.00;99601.67;103809;1281;59776;-31
2023/12/08 06:07:17;;;;;;;225.70;61.10;;;;;;;-1.66;100.00;99602.92;103687;1281;60227;-30
2023/12/08 06:09:43;;;;;;;199.80;59.00;;;;;;;-1.71;100.00;99600.37;103819;1282;59796;-30
2023/12/08 06:12:08;;;;;;;213.80;60.10;;;;;;;-1.75;100.00;99604.48;103581;1281;61343;-32
2023/12/08 06:14:34;;;;;;;223.30;64.50;;;;;;;-1.80;100.00;99609.39;103575;1282;59644;-32
2023/12/08 06:17:00;;;;;;;238.90;70.10;;;;;;;-1.85;100.00;99605.56;103626;1281;59740;-32
2023/12/08 06:19:26;;;;;;;235.20;69.00;;;;;;;-1.89;100.00;99605.33;103605;1285;59765;-33
2023/12/08 06:21:52;;;;;;;222.60;67.00;;;;;;;-1.95;100.00;99609.42;103695;1286;59812;-33
2023/12/08 06:24:18;;;;;;;222.40;62.40;;;;;;;-2.00;100.00;99617.70;103752;1285;60461;-33
2023/12/08 06:26:44;;;;;;;239.90;71.00;;;;;;;-2.03;100.00;99619.55;103649;1284;59795;-36
2023/12/08 06:29:09;;;;;;;247.30;75.20;;;;;;;-2.06;100.00;99624.00;103017;1281;1015011;-31
2023/12/08 06:31:35;;;;;;;231.30;69.30;;;;;;;-2.07;100.00;99625.99;103592;1282;59755;-29
2023/12/08 06:34:01;;;;;;;287.50;99.60;;;;;;;-2.07;100.00;99629.48;103738;1281;59724;-31
2023/12/08 06:36:27;;;;;;;252.10;80.80;;;;;;;-2.08;100.00;99634.95;103669;1282;59848;-31
2023/12/08 06:38:53;;;;;;;298.10;110.30;;;;;;;-2.06;100.00;99637.33;103658;1282;60630;-30
2023/12/08 06:41:20;;;;;;;338.90;132.00;;;;;;;-2.10;100.00;99632.45;103595;1281;61152;-31
2023/12/08 06:43:47;;;;;;;330.80;133.70;;;;;;;-2.08;100.00;99639.88;103740;1281;60461;-29
2023/12/08 06:46:13;;;;;;;309.60;124.00;;;;;;;-2.05;100.00;99642.83;103703;1281;60544;-29
2023/12/08 06:48:39;;;;;;;;;;;;;;;-2.00;100.00;99636.52;103730;1282;60498;-31
2023/12/08 06:51:05;;;;;;;224.50;75.10;;;;;;;-2.03;100.00;99632.50;103620;1281;60681;-32
2023/12/08 06:53:31;;;;;;;217.80;66.20;;;;;;;-2.03;100.00;99631.32;103626;1282;60545;-32
2023/12/08 06:55:57;;;;;;;217.10;67.30;;;;;;;-2.01;100.00;99631.10;103611;1287;60572;-31
2023/12/08 06:58:22;;;;;;;214.30;66.30;;;;;;;-1.93;100.00;99633.90;103658;1284;60713;-30
2023/12/08 07:00:48;;;;;;;218.40;67.40;;;;;;;-1.88;100.00;99635.27;103655;1286;60449;-30
2023/12/08 07:03:14;;;;;;;220.80;68.70;;;;;;;-1.86;100.00;99632.88;103567;1282;74360;-32
2023/12/08 07:05:40;;;;;;;262.00;81.50;;;;;;;-1.84;100.00;99639.23;103544;1286;60464;-30
2023/12/08 07:08:06;;;;;;;259.20;75.20;;;;;;;-1.81;100.00;99636.22;103778;1285;60569;-33
2023/12/08 07:10:32;;;;;;;258.50;79.80;;;;;;;-1.79;100.00;99635.84;103682;1282;60565;-30
2023/12/08 07:12:58;;;;;;;277.20;80.10;;;;;;;-1.77;100.00;99629.77;103606;1282;60861;-31
2023/12/08 07:15:24;;;;;;;266.90;78.10;;;;;;;-1.74;100.00;99629.87;103719;1281;60547;-31
2023/12/08 07:17:50;;;;;;;263.60;76.50;;;;;;;-1.71;100.00;99631.21;103596;1282;60564;-35
2023/12/08 07:20:18;;;;;;;;;;;;;;;-1.66;100.00;99635.09;103633;1282;60621;-31
2023/12/08 07:22:44;;;;;;;229.40;71.90;;;;;;;-1.64;100.00;99630.23;103637;1284;60375;-31
2023/12/08 07:25:12;;;;;;;227.60;73.10;;;;;;;-1.61;100.00;99626.16;103629;1282;60586;-32
2023/12/08 07:27:38;;;;;;;245.30;76.30;;;;;;;-1.61;100.00;99619.95;103585;1281;60613;-30
2023/12/08 07:30:04;;;;;;;229.60;73.40;;;;;;;-1.60;100.00;99618.84;103614;1282;60656;-33
2023/12/08 07:32:30;;;;;;;243.00;75.60;;;;;;;-1.58;100.00;99612.53;103785;1282;74240;-32
2023/12/08 07:34:56;;;;;;;234.70;76.60;;;;;;;-1.54;100.00;99611.20;103642;1286;60527;-33
2023/12/08 07:37:22;;;;;;;244.40;77.30;;;;;;;-1.52;100.00;99614.17;103622;1282;60525;-31
2023/12/08 07:39:48;;;;;;;269.20;90.50;;;;;;;-1.46;100.00;99615.69;103712;1282;60495;-31
2023/12/08 07:42:14;;;;;;;358.30;142.80;;;;;;;-1.38;100.00;99612.98;103621;1283;60489;-32
2023/12/08 07:44:40;;;;;;;403.70;169.60;;;;;;;-1.31;100.00;99618.45;103598;1282;60585;-31
2023/12/08 07:47:07;;;;;;;423.20;140.30;;;;;;;-1.26;100.00;99624.02;103688;1282;61094;-30
2023/12/08 07:49:32;;;;;;;361.50;105.30;;;;;;;-1.21;100.00;99623.81;103749;1282;61060;-29
2023/12/08 07:51:59;;;;;;;280.00;91.60;;;;;;;-1.15;100.00;99623.75;103582;1282;60495;-33
2023/12/08 07:54:26;;;;;;;270.80;87.30;;;;;;;-1.10;100.00;99617.02;103600;1282;60602;-32
2023/12/08 07:56:52;;;;;;;236.40;76.30;;;;;;;-1.09;100.00;99611.84;103647;1282;60573;-31
2023/12/08 07:59:18;;;;;;;234.50;74.30;;;;;;;-1.09;100.00;99604.63;103749;1282;60546;-32
2023/12/08 08:01:44;;;;;;;221.00;72.80;;;;;;;-1.10;100.00;99600.99;103639;1281;60512;-31
2023/12/08 08:04:10;;;;;;;235.90;75.60;;;;;;;-1.10;100.00;99597.83;103585;1281;60598;-32
2023/12/08 08:06:36;;;;;;;263.30;85.30;;;;;;;-1.08;100.00;99593.33;103663;1282;60868;-31
2023/12/08 08:09:03;;;;;;;264.10;85.10;;;;;;;-1.13;100.00;99586.16;103834;1282;60483;-33
2023/12/08 08:11:29;;;;;;;272.90;81.60;;;;;;;-1.15;100.00;99571.17;103666;1281;60597;-29
2023/12/08 08:13:54;;;;;;;275.80;87.50;;;;;;;-1.05;100.00;99560.89;103631;1281;60517;-29
2023/12/08 08:16:20;;;;;;;280.10;86.80;;;;;;;-0.85;100.00;99570.42;103650;1281;60486;-32
2023/12/08 08:18:46;;;;;;;276.60;83.90;;;;;;;-0.65;100.00;99579.42;103568;1283;71953;-30
2023/12/08 08:21:12;;;;;;;292.50;92.00;;;;;;;-0.48;100.00;99584.08;103650;1281;60569;-36
2023/12/08 08:23:38;;;;;;;331.40;105.10;;;;;;;-0.35;100.00;99578.09;103740;1281;60571;-32
2023/12/08 08:26:04;;;;;;;318.30;109.30;;;;;;;-0.31;100.00;99586.38;103788;1281;60451;-32
2023/12/08 08:28:30;;;;;;;294.90;101.80;;;;;;;-0.21;100.00;99578.91;103645;1281;60562;-31
2023/12/08 08:30:55;;;;;;;347.10;122.30;;;;;;;-0.16;100.00;99578.13;103455;1281;60594;-33
2023/12/08 08:33:22;;;;;;;330.20;114.70;;;;;;;-0.03;100.00;99575.70;103543;1284;60834;-32
2023/12/08 08:35:48;;;;;;;309.40;105.90;;;;;;;0.18;100.00;99576.59;103686;1282;60429;-34
2023/12/08 08:38:14;;;;;;;255.20;85.30;;;;;;;0.44;100.00;99578.20;103666;1283;60551;-31
2023/12/08 08:40:40;;;;;;;254.10;84.30;;;;;;;0.70;100.00;99576.90;103733;1281;60512;-32
2023/12/08 08:43:05;;;;;;;256.00;80.50;;;;;;;0.86;100.00;99577.60;103696;1281;60546;-30
2023/12/08 08:45:32;;;;;;;;;;;;;;;1.09;100.00;99574.66;103626;1285;60473;-31
2023/12/08 08:47:58;;;;;;;259.20;82.70;;;;;;;1.24;100.00;99574.88;103722;1286;60620;-31
2023/12/08 08:50:24;;;;;;;270.40;98.90;;;;;;;1.45;100.00;99570.27;103689;1285;60417;-31
2023/12/08 08:52:50;;;;;;;251.20;94.70;;;;;;;1.60;100.00;99568.09;103674;1282;60562;-32
2023/12/08 08:55:16;;;;;;;259.70;90.00;;;;;;;1.66;100.00;99563.45;103672;1282;60659;-31
2023/12/08 08:57:42;;;;;;;242.40;78.70;;;;;;;1.78;100.00;99563.85;103760;1282;60534;-31
2023/12/08 09:00:12;;;;;;;200.50;67.70;;;;;;;1.95;100.00;99570.40;103685;1285;60592;-30
2023/12/08 09:02:38;;;;;;;171.70;66.20;;;;;;;2.20;100.00;99578.81;103595;1286;60460;-32
2023/12/08 09:05:05;;;;;;;172.80;65.30;;;;;;;2.35;100.00;99585.88;103641;1286;60503;-33
2023/12/08 09:07:31;;;;;;;172.80;64.70;;;;;;;2.54;100.00;99577.42;103664;1282;60465;-32
2023/12/08 09:09:57;;;;;;;;;;;;;;;2.56;100.00;99579.01;103687;1282;60487;-41
2023/12/08 09:12:23;;;;;;;146.10;54.20;;;;;;;2.62;100.00;99579.56;103657;1281;60569;-31
2023/12/08 09:14:48;;;;;;;147.30;54.80;;;;;;;2.80;100.00;99577.52;103670;1281;60566;-30
2023/12/08 09:17:14;;;;;;;322.70;122.60;;;;;;;2.95;100.00;99577.52;103627;1281;61072;-31
2023/12/08 09:19:40;;;;;;;171.60;62.60;;;;;;;3.00;100.00;99572.68;103597;1282;60576;-32
2023/12/08 09:22:06;;;;;;;131.10;48.60;;;;;;;3.00;99.53;99570.30;103693;1281;60528;-32
2023/12/08 09:24:32;;;;;;;184.80;73.00;;;;;;;3.10;99.06;99576.84;103787;1282;60400;-31
2023/12/08 09:27:00;;;;;;;413.10;179.40;;;;;;;3.10;96.88;99580.75;103670;1286;60534;-31
2023/12/08 09:29:26;;;;;;;511.40;258.10;;;;;;;3.24;97.22;99582.74;103658;1281;60432;-31
2023/12/08 09:31:52;;;;;;;434.20;204.60;;;;;;;3.42;97.67;99576.84;103726;1281;60511;-30
2023/12/08 09:34:18;;;;;;;364.00;152.90;;;;;;;3.55;96.59;99573.65;103684;1281;60574;-30
2023/12/08 09:36:44;;;;;;;302.10;129.10;;;;;;;3.62;95.29;99575.64;103671;1281;60583;-32
2023/12/08 09:39:10;;;;;;;;;;;;;;;3.54;93.30;99573.51;103697;1282;60536;-32
2023/12/08 09:41:38;;;;;;;379.70;125.30;;;;;;;3.66;93.31;99570.06;103641;1286;60577;-32
2023/12/08 09:44:08;;;;;;;431.60;156.00;;;;;;;3.75;94.08;99571.56;103670;1281;60565;-32
2023/12/08 09:46:34;;;;;;;377.90;125.60;;;;;;;3.56;91.64;99578.14;103578;1281;61265;-29
2023/12/08 09:49:01;;;;;;;347.90;112.20;;;;;;;3.52;91.39;99574.25;103669;1282;60557;-30
2023/12/08 09:51:27;;;;;;;338.20;106.50;;;;;;;3.39;90.48;99571.60;103644;1281;60467;-33
2023/12/08 09:53:53;;;;;;;;;;;;;;;3.50;90.28;99569.98;103723;1282;60574;-31
2023/12/08 09:56:18;;;;;;;168.20;60.70;;;;;;;3.56;89.11;99564.28;103836;1287;60585;-31
2023/12/08 09:58:45;;;;;;;152.60;54.40;;;;;;;3.76;89.62;99552.42;103659;1282;60466;-32
2023/12/08 10:01:13;;;;;;;313.40;97.00;;;;;;;3.89;89.08;99544.86;103686;1282;60486;-33
2023/12/08 10:03:40;;;;;;;228.10;76.50;;;;;;;4.02;89.44;99538.41;103665;1281;61407;-31
2023/12/08 10:06:06;;;;;;;137.10;52.70;;;;;;;4.05;87.26;99532.48;103585;1281;74075;-31
2023/12/08 10:08:32;;;;;;;202.00;70.10;;;;;;;4.12;87.05;99526.97;103731;1281;69273;-32
2023/12/08 10:10:58;;;;;;;225.70;81.00;;;;;;;4.13;86.57;99523.48;103704;1286;60504;-33
2023/12/08 10:13:24;;;;;;;162.40;69.00;;;;;;;4.15;85.03;99517.33;103784;1282;60572;-32
2023/12/08 10:15:50;;;;;;;;;;;;;;;4.46;86.47;99515.14;103592;1286;60575;-33
2023/12/08 10:18:23;;;;;;;177.40;65.30;;;;;;;4.64;85.74;99512.85;103583;1282;60561;-32
2023/12/08 10:20:49;;;;;;;131.10;51.20;;;;;;;4.66;85.37;99517.27;103603;1281;73791;-32
2023/12/08 10:23:20;;;;;;;146.90;54.80;;;;;;;4.61;82.90;99520.77;103612;1282;60509;-32
2023/12/08 10:25:47;;;;;;;238.20;74.40;;;;;;;4.61;82.19;99522.90;103517;1287;73064;-36
2023/12/08 10:28:13;;;;;;;340.10;98.50;;;;;;;4.62;81.14;99524.42;103677;1287;60467;-32
2023/12/08 10:30:44;;;;;;;320.70;99.60;;;;;;;4.44;81.28;99522.72;103660;1286;60574;-33
2023/12/08 10:33:18;;;;;;;293.00;83.20;;;;;;;4.06;81.32;99517.79;103676;1285;60440;-32
2023/12/08 10:35:44;;;;;;;149.10;53.70;;;;;;;4.14;82.11;99514.20;103553;1282;74154;-32
2023/12/08 10:38:10;;;;;;;126.10;49.70;;;;;;;4.11;82.30;99507.55;103605;1282;60515;-32
2023/12/08 10:40:35;;;;;;;135.00;52.80;;;;;;;4.08;81.94;99498.33;103591;1286;60563;-31
2023/12/08 10:43:01;;;;;;;138.10;52.10;;;;;;;3.91;81.67;99498.77;103578;1281;60579;-31
2023/12/08 10:45:27;;;;;;;137.90;52.30;;;;;;;3.77;81.80;99496.95;103652;1281;60512;-32
2023/12/08 10:47:53;;;;;;;;;;;;;;;3.62;82.03;99499.80;103606;1282;60460;-33
2023/12/08 10:50:19;;;;;;;142.40;56.20;;;;;;;3.49;82.80;99500.75;103619;1282;60824;-33
2023/12/08 10:52:45;;;;;;;151.40;59.40;;;;;;;3.63;83.60;99496.52;103631;1281;60460;-31
2023/12/08 10:55:11;;;;;;;134.70;53.30;;;;;;;3.85;82.84;99489.81;103682;1282;60564;-32
2023/12/08 10:57:37;;;;;;;126.10;48.80;;;;;;;3.75;81.48;99489.11;103655;1285;60592;-33
2023/12/08 11:00:11;;;;;;;;;;;;;;;3.56;81.11;99493.00;103587;1281;60523;-31
2023/12/08 11:02:37;;;;;;;114.90;45.20;;;;;;;3.48;81.55;99485.44;103711;1285;74602;-31
2023/12/08 11:05:04;;;;;;;128.00;48.70;;;;;;;3.60;81.92;99488.30;103611;1282;60563;-31
2023/12/08 11:07:32;;;;;;;119.20;47.70;;;;;;;3.72;81.67;99488.89;103613;1281;71496;-31
2023/12/08 11:10:00;;;;;;;121.10;49.00;;;;;;;3.77;81.48;99481.52;103675;1282;60584;-31
2023/12/08 11:12:26;;;;;;;118.00;47.60;;;;;;;3.85;81.23;99480.58;103739;1282;60507;-31
2023/12/08 11:15:00;;;;;;;126.40;52.30;;;;;;;3.91;80.80;99477.69;103606;1282;60478;-32
2023/12/08 11:17:37;;;;;;;156.80;69.20;;;;;;;3.96;80.14;99474.70;103625;1281;73665;-32
2023/12/08 11:20:05;;;;;;;176.60;71.10;;;;;;;4.04;80.15;99473.54;103554;1281;68809;-34
2023/12/08 11:22:33;;;;;;;250.40;114.30;;;;;;;3.97;79.12;99466.95;103661;1288;73080;-32
2023/12/08 11:24:59;;;;;;;259.00;115.10;;;;;;;3.76;78.75;99462.98;103700;1285;60489;-31
2023/12/08 11:27:33;;;;;;;;;;;;;;;3.57;79.47;99463.14;103707;1287;60570;-31
2023/12/08 11:30:03;;;;;;;155.80;69.10;;;;;;;3.51;79.96;99461.88;103645;1281;60458;-29
2023/12/08 11:32:39;;;;;;;126.80;49.80;;;;;;;3.51;79.96;99459.48;103519;1284;74537;-31
2023/12/08 11:35:12;;;;;;;131.10;53.00;;;;;;;3.41;79.90;99456.16;103591;1281;68766;-30
2023/12/08 11:37:39;;;;;;;127.30;48.70;;;;;;;3.30;79.76;99456.41;103576;1285;72516;-30
2023/12/08 11:40:11;;;;;;;134.30;50.50;;;;;;;3.26;80.20;99452.84;103653;1285;60494;-30